createdAt,value
2022-09-29T00:01:17.042Z,7.12
2022-09-29T00:03:46.618Z,7.13
2022-09-29T00:06:17.765Z,7.13
2022-09-29T00:08:46.923Z,7.14
2022-09-29T00:11:17.997Z,7.13
2022-09-29T00:13:47.187Z,7.14
2022-09-29T00:16:15.490Z,7.14
2022-09-29T00:18:43.809Z,7.16
2022-09-29T00:21:16.382Z,7.18
2022-09-29T00:23:44.876Z,7.18
2022-09-29T00:26:16.772Z,7.19
2022-09-29T00:28:50.100Z,7.19
2022-09-29T00:31:18.331Z,7.21
2022-09-29T00:33:47.329Z,7.22
2022-09-29T00:36:19.297Z,7.22
2022-09-29T00:38:49.109Z,7.23
2022-09-29T00:41:21.321Z,7.25
2022-09-29T00:43:55.575Z,7.25
2022-09-29T00:46:32.156Z,7.26
2022-09-29T00:49:06.612Z,7.26
2022-09-29T00:51:40.584Z,7.27
2022-09-29T00:54:10.627Z,7.30
2022-09-29T00:56:42.793Z,7.31
2022-09-29T00:59:15.496Z,7.32
2022-09-29T01:01:43.795Z,7.34
2022-09-29T01:04:15.379Z,7.35
2022-09-29T01:06:50.507Z,7.38
2022-09-29T01:09:22.298Z,7.40
2022-09-29T01:11:52.781Z,7.42
2022-09-29T01:14:21.156Z,7.44
2022-09-29T01:16:49.364Z,7.46
2022-09-29T01:19:25.421Z,7.48
2022-09-29T01:22:07.452Z,7.49
2022-09-29T01:25:04.160Z,7.50
2022-09-29T01:28:19.045Z,7.52
2022-09-29T01:31:19.517Z,7.55
2022-09-29T01:33:59.824Z,7.57
2022-09-29T01:36:41.542Z,7.59
2022-09-29T01:39:20.723Z,7.61
2022-09-29T01:41:54.383Z,7.61
2022-09-29T01:44:30.156Z,7.62
2022-09-29T01:47:08.298Z,7.63
2022-09-29T01:49:44.771Z,7.66
2022-09-29T01:52:16.784Z,7.69
2022-09-29T01:54:52.067Z,7.72
2022-09-29T01:57:27.386Z,7.75
2022-09-29T02:00:02.705Z,7.77
2022-09-29T02:02:40.374Z,7.77
2022-09-29T02:05:17.014Z,7.77
2022-09-29T02:07:47.919Z,7.77
2022-09-29T02:10:24.253Z,7.76
2022-09-29T02:12:57.024Z,7.77
2022-09-29T02:15:29.992Z,7.76
2022-09-29T02:18:02.807Z,7.74
2022-09-29T02:20:31.225Z,7.75
2022-09-29T02:22:59.696Z,7.75
2022-09-29T02:25:27.899Z,7.77
2022-09-29T02:27:56.680Z,7.79
2022-09-29T02:30:24.870Z,7.81
2022-09-29T02:32:53.120Z,7.83
2022-09-29T02:35:23.115Z,7.84
2022-09-29T02:38:05.634Z,7.86
2022-09-29T02:40:48.618Z,7.87
2022-09-29T02:43:27.467Z,7.87
2022-09-29T02:46:15.392Z,7.87
2022-09-29T02:49:15.539Z,7.89
2022-09-29T02:51:50.144Z,7.89
2022-09-29T02:54:34.460Z,7.89
2022-09-29T02:57:14.647Z,7.90
2022-09-29T02:59:53.827Z,7.91
2022-09-29T03:02:27.270Z,7.91
2022-09-29T03:04:55.600Z,7.91
2022-09-29T03:07:25.476Z,7.91
2022-09-29T03:09:53.696Z,7.92
2022-09-29T03:12:21.876Z,7.92
2022-09-29T03:14:50.047Z,7.92
2022-09-29T03:17:18.640Z,7.94
2022-09-29T03:19:46.776Z,7.95
2022-09-29T03:22:15.156Z,7.95
2022-09-29T03:24:44.702Z,7.97
2022-09-29T03:27:13.180Z,7.96
2022-09-29T03:29:41.404Z,7.96
2022-09-29T03:32:09.647Z,7.96
2022-09-29T03:34:37.991Z,7.98
2022-09-29T03:37:06.478Z,7.98
2022-09-29T03:39:34.682Z,7.99
2022-09-29T03:42:04.258Z,7.99
2022-09-29T03:44:32.419Z,8.00
2022-09-29T03:47:00.828Z,8.01
2022-09-29T03:49:29.261Z,8.02
2022-09-29T03:51:57.432Z,8.03
2022-09-29T03:54:27.617Z,8.05
2022-09-29T03:56:55.777Z,8.06
2022-09-29T03:59:25.290Z,8.06
2022-09-29T04:01:53.560Z,8.07
2022-09-29T04:04:21.756Z,8.08
2022-09-29T04:06:49.932Z,8.07
2022-09-29T04:09:18.237Z,8.07
2022-09-29T04:11:46.589Z,8.06
2022-09-29T04:14:14.814Z,8.05
2022-09-29T04:16:44.354Z,8.05
2022-09-29T04:19:12.627Z,8.04
2022-09-29T04:21:40.832Z,8.02
2022-09-29T04:24:09.284Z,8.02
2022-09-29T04:26:37.463Z,8.01
2022-09-29T04:29:05.648Z,8.01
2022-09-29T04:31:33.948Z,8.02
2022-09-29T04:34:03.680Z,8.01
2022-09-29T04:36:31.960Z,8.02
2022-09-29T04:39:00.107Z,8.02
2022-09-29T04:41:28.657Z,8.02
2022-09-29T04:43:56.835Z,8.03
2022-09-29T04:46:24.991Z,8.03
2022-09-29T04:48:53.132Z,8.04
2022-09-29T04:51:22.653Z,8.05
2022-09-29T04:53:51.017Z,8.05
2022-09-29T04:56:19.196Z,8.05
2022-09-29T04:58:47.385Z,8.05
2022-09-29T05:01:15.629Z,8.06
2022-09-29T05:03:44.330Z,8.07
2022-09-29T05:06:12.506Z,8.08
2022-09-29T05:08:42.005Z,8.08
2022-09-29T05:11:11.931Z,8.09
2022-09-29T05:13:40.269Z,8.10
2022-09-29T05:16:09.322Z,8.10
2022-09-29T05:18:37.482Z,8.10
2022-09-29T05:23:57.546Z,8.11
2022-09-29T05:26:26.149Z,8.12
2022-09-29T05:28:54.349Z,8.13
2022-09-29T05:31:23.198Z,8.15
2022-09-29T05:33:51.961Z,8.17
2022-09-29T05:36:20.248Z,8.19
2022-09-29T05:38:48.678Z,8.19
2022-09-29T05:41:23.978Z,8.23
2022-09-29T05:43:53.570Z,8.23
2022-09-29T05:46:23.060Z,8.25
2022-09-29T05:48:52.378Z,8.26
2022-09-29T05:51:23.831Z,8.27
2022-09-29T05:53:52.822Z,8.28
2022-09-29T05:56:24.211Z,8.31
2022-09-29T05:58:53.763Z,8.34
2022-09-29T06:01:24.646Z,8.35
2022-09-29T06:03:55.497Z,8.37
2022-09-29T06:06:27.138Z,8.39
2022-09-29T06:08:56.103Z,8.39
2022-09-29T06:11:28.511Z,8.41
2022-09-29T06:13:57.323Z,8.41
2022-09-29T06:16:29.052Z,8.43
2022-09-29T06:18:57.370Z,8.44
2022-09-29T06:21:27.714Z,8.46
2022-09-29T06:23:58.020Z,8.46
2022-09-29T06:26:28.667Z,8.49
2022-09-29T06:28:58.575Z,8.52
2022-09-29T06:31:29.695Z,8.54
2022-09-29T06:33:59.437Z,8.57
2022-09-29T06:36:48.894Z,8.59
2022-09-29T06:39:17.968Z,8.62
2022-09-29T06:41:53.487Z,8.66
2022-09-29T06:44:23.378Z,8.68
2022-09-29T06:46:52.139Z,8.71
2022-09-29T06:49:21.004Z,8.73
2022-09-29T06:51:49.889Z,8.79
2022-09-29T06:54:20.877Z,8.83
2022-09-29T06:56:51.747Z,8.88
2022-09-29T06:59:20.401Z,8.93
2022-09-29T07:01:51.114Z,8.96
2022-09-29T07:04:21.921Z,9.01
2022-09-29T07:06:50.959Z,9.04
2022-09-29T07:09:20.441Z,9.08
2022-09-29T07:11:52.477Z,9.13
2022-09-29T07:14:23.534Z,9.17
2022-09-29T07:16:52.472Z,9.25
2022-09-29T07:19:22.233Z,9.31
2022-09-29T07:21:51.680Z,9.37
2022-09-29T07:24:19.913Z,9.42
2022-09-29T07:26:48.096Z,9.48
2022-09-29T07:29:17.883Z,9.48
2022-09-29T07:31:52.216Z,9.47
2022-09-29T07:34:21.324Z,9.48
2022-09-29T07:36:49.780Z,9.52
2022-09-29T07:39:18.101Z,9.58
2022-09-29T07:41:46.271Z,9.63
2022-09-29T07:44:14.414Z,9.71
2022-09-29T07:46:43.941Z,9.76
2022-09-29T07:49:12.218Z,9.80
2022-09-29T07:51:40.423Z,9.86
2022-09-29T07:54:08.708Z,9.92
2022-09-29T07:56:36.938Z,9.96
2022-09-29T07:59:05.470Z,9.99
2022-09-29T08:01:34.217Z,10.02
2022-09-29T08:04:04.364Z,10.05
2022-09-29T08:06:33.211Z,10.07
2022-09-29T08:09:05.160Z,10.09
2022-09-29T08:11:35.230Z,10.09
2022-09-29T08:14:03.569Z,10.12
2022-09-29T08:16:32.519Z,10.15
2022-09-29T08:19:01.185Z,10.17
2022-09-29T08:21:31.909Z,10.19
2022-09-29T08:24:02.391Z,10.19
2022-09-29T08:26:41.834Z,10.20
2022-09-29T08:29:16.468Z,10.20
2022-09-29T08:31:46.379Z,10.21
2022-09-29T08:34:15.390Z,10.21
2022-09-29T08:36:45.130Z,10.21
2022-09-29T08:39:15.446Z,10.23
2022-09-29T08:42:00.329Z,10.26
2022-09-29T08:44:39.655Z,10.30
2022-09-29T08:47:24.007Z,10.34
2022-09-29T08:49:57.339Z,10.37
2022-09-29T08:52:40.243Z,10.42
2022-09-29T08:55:31.825Z,10.48
2022-09-29T08:58:02.404Z,10.55
2022-09-29T09:00:41.803Z,10.59
2022-09-29T09:03:50.085Z,10.59
2022-09-29T09:06:27.969Z,10.63
2022-09-29T09:09:19.410Z,10.63
2022-09-29T09:12:11.376Z,10.66
2022-09-29T09:15:16.054Z,10.68
2022-09-29T09:18:07.769Z,10.69
2022-09-29T09:20:41.008Z,10.71
2022-09-29T09:23:21.386Z,10.72
2022-09-29T09:25:55.869Z,10.74
2022-09-29T09:28:32.144Z,10.76
2022-09-29T09:31:07.631Z,10.78
2022-09-29T09:33:42.894Z,10.78
2022-09-29T09:36:29.898Z,10.78
2022-09-29T09:39:06.160Z,10.77
2022-09-29T09:41:39.304Z,10.76
2022-09-29T09:44:17.369Z,10.75
2022-09-29T09:46:50.930Z,10.75
2022-09-29T09:49:26.442Z,10.75
2022-09-29T09:52:03.699Z,10.74
2022-09-29T09:54:37.789Z,10.72
2022-09-29T09:58:02.514Z,10.70
2022-09-29T10:00:36.145Z,10.71
2022-09-29T10:03:07.860Z,10.67
2022-09-29T10:05:40.260Z,10.66
2022-09-29T10:08:13.603Z,10.67
2022-09-29T10:10:57.712Z,10.68
2022-09-29T10:13:31.700Z,10.68
2022-09-29T10:16:02.580Z,10.66
2022-09-29T10:18:38.596Z,10.64
2022-09-29T10:21:23.342Z,10.63
2022-09-29T10:23:56.518Z,10.63
2022-09-29T10:26:28.183Z,10.66
2022-09-29T10:29:02.879Z,10.66
2022-09-29T10:31:33.550Z,10.69
2022-09-29T10:34:14.705Z,10.70
2022-09-29T10:36:53.675Z,10.70
2022-09-29T10:39:41.056Z,10.71
2022-09-29T10:42:24.156Z,10.73
2022-09-29T10:44:56.021Z,10.70
2022-09-29T10:47:24.862Z,10.71
2022-09-29T10:50:19.180Z,10.69
2022-09-29T10:52:53.791Z,10.72
2022-09-29T10:55:24.756Z,10.71
2022-09-29T10:57:56.657Z,10.71
2022-09-29T11:00:34.455Z,10.70
2022-09-29T11:03:17.835Z,10.73
2022-09-29T11:05:54.133Z,10.78
2022-09-29T11:08:26.006Z,10.80
2022-09-29T11:11:07.473Z,10.79
2022-09-29T11:13:41.161Z,10.82
2022-09-29T11:16:20.000Z,10.83
2022-09-29T11:18:53.050Z,10.87
2022-09-29T11:22:24.454Z,10.89
2022-09-29T11:25:30.322Z,10.90
2022-09-29T11:28:18.174Z,10.89
2022-09-29T11:31:02.852Z,10.86
2022-09-29T11:33:47.941Z,10.84
2022-09-29T11:36:27.470Z,10.84
2022-09-29T11:39:21.104Z,10.86
2022-09-29T11:42:14.774Z,10.91
2022-09-29T11:44:59.244Z,10.95
2022-09-29T11:48:20.676Z,11.00
2022-09-29T11:51:03.510Z,11.03
2022-09-29T11:53:52.265Z,11.06
2022-09-29T11:56:33.608Z,11.08
2022-09-29T11:59:24.360Z,11.09
2022-09-29T12:02:18.107Z,11.11
2022-09-29T12:04:58.892Z,11.11
2022-09-29T12:07:42.492Z,11.10
2022-09-29T12:10:33.810Z,11.09
2022-09-29T12:13:20.890Z,11.07
2022-09-29T12:15:57.092Z,11.05
2022-09-29T12:18:32.291Z,11.04
2022-09-29T12:21:02.522Z,11.03
2022-09-29T12:23:34.476Z,10.99
2022-09-29T12:26:09.988Z,10.98
2022-09-29T12:28:46.366Z,10.98
2022-09-29T12:31:20.982Z,10.97
2022-09-29T12:33:53.604Z,10.97
2022-09-29T12:36:50.562Z,10.97
2022-09-29T12:39:36.762Z,10.95
2022-09-29T12:42:29.450Z,10.92
2022-09-29T12:45:10.847Z,10.87
2022-09-29T12:47:56.037Z,10.83
2022-09-29T12:50:29.840Z,10.82
2022-09-29T12:53:08.908Z,10.82
2022-09-29T12:55:49.157Z,10.81
2022-09-29T12:58:24.080Z,10.79
2022-09-29T13:01:03.993Z,10.77
2022-09-29T13:04:21.928Z,10.75
2022-09-29T13:07:23.185Z,10.74
2022-09-29T13:10:40.677Z,10.70
2022-09-29T13:13:52.840Z,10.66
2022-09-29T13:16:47.313Z,10.63
2022-09-29T13:19:57.512Z,10.60
2022-09-29T13:22:52.284Z,10.61
2022-09-29T13:25:28.841Z,10.63
2022-09-29T13:27:59.125Z,10.65
2022-09-29T13:30:32.079Z,10.65
2022-09-29T13:33:10.341Z,10.66
2022-09-29T13:35:42.588Z,10.67
2022-09-29T13:38:19.158Z,10.68
2022-09-29T13:41:16.758Z,10.68
2022-09-29T13:44:05.737Z,10.67
2022-09-29T13:46:41.838Z,10.67
2022-09-29T13:49:28.210Z,10.66
2022-09-29T13:51:58.054Z,10.67
2022-09-29T13:54:39.416Z,10.65
2022-09-29T13:57:27.672Z,10.63
2022-09-29T14:00:20.940Z,10.63
2022-09-29T14:03:23.546Z,10.64
2022-09-29T14:06:41.522Z,10.65
2022-09-29T14:09:09.184Z,10.66
2022-09-29T14:11:42.087Z,10.66
2022-09-29T14:14:15.804Z,10.64
2022-09-29T14:16:56.523Z,10.63
2022-09-29T14:19:52.600Z,10.61
2022-09-29T14:22:57.480Z,10.63
2022-09-29T14:25:55.801Z,10.65
2022-09-29T14:28:42.105Z,10.64
2022-09-29T14:31:25.203Z,10.63
2022-09-29T14:33:54.407Z,10.61
2022-09-29T14:36:28.187Z,10.61
2022-09-29T14:39:24.689Z,10.63
2022-09-29T14:41:48.961Z,10.64
2022-09-29T14:44:23.516Z,10.67
2022-09-29T14:47:49.007Z,10.69
2022-09-29T14:50:57.745Z,10.72
2022-09-29T14:53:57.723Z,10.76
2022-09-29T14:56:44.199Z,10.80
2022-09-29T14:59:25.347Z,10.83
2022-09-29T15:02:17.860Z,10.86
2022-09-29T15:04:47.582Z,10.87
2022-09-29T15:07:18.773Z,10.91
2022-09-29T15:09:52.517Z,10.95
2022-09-29T15:12:26.427Z,10.98
2022-09-29T15:14:57.880Z,11.01
2022-09-29T15:17:43.750Z,11.04
2022-09-29T15:20:24.847Z,11.05
2022-09-29T15:23:28.849Z,11.08
2022-09-29T15:28:37.690Z,11.15
2022-09-29T15:31:09.935Z,11.17
2022-09-29T15:33:41.151Z,11.18
2022-09-29T15:36:20.173Z,11.18
2022-09-29T15:38:54.104Z,11.18
2022-09-29T15:41:29.077Z,11.21
2022-09-29T15:44:01.920Z,11.22
2022-09-29T15:46:39.286Z,11.25
2022-09-29T15:49:15.671Z,11.28
2022-09-29T15:51:47.231Z,11.24
2022-09-29T15:54:16.372Z,11.25
2022-09-29T15:57:06.052Z,11.28
2022-09-29T15:59:43.408Z,11.31
2022-09-29T16:02:31.402Z,11.34
2022-09-29T16:05:03.816Z,11.39
2022-09-29T16:07:34.564Z,11.42
2022-09-29T16:10:09.652Z,11.45
2022-09-29T16:12:47.792Z,11.49
2022-09-29T16:15:23.099Z,11.52
2022-09-29T16:17:52.054Z,11.53
2022-09-29T16:20:28.060Z,11.54
2022-09-29T16:22:56.939Z,11.55
2022-09-29T16:25:29.099Z,11.54
2022-09-29T16:28:01.354Z,11.54
2022-09-29T16:30:38.706Z,11.54
2022-09-29T16:33:16.082Z,11.55
2022-09-29T16:35:57.458Z,11.56
2022-09-29T16:38:36.813Z,11.56
2022-09-29T16:41:35.604Z,11.57
2022-09-29T16:44:16.243Z,11.58
2022-09-29T16:46:51.284Z,11.58
2022-09-29T16:49:22.935Z,11.58
2022-09-29T16:51:51.958Z,11.58
2022-09-29T16:54:26.521Z,11.56
2022-09-29T16:57:25.376Z,11.53
2022-09-29T16:59:57.095Z,11.53
2022-09-29T17:02:27.075Z,11.54
2022-09-29T17:04:57.534Z,11.53
2022-09-29T17:07:28.461Z,11.52
2022-09-29T17:10:00.020Z,11.53
2022-09-29T17:12:31.477Z,11.52
2022-09-29T17:15:01.502Z,11.51
2022-09-29T17:17:30.026Z,11.50
2022-09-29T17:19:58.413Z,11.49
2022-09-29T17:22:31.184Z,11.50
2022-09-29T17:24:59.953Z,11.44
2022-09-29T17:27:47.923Z,11.47
2022-09-29T17:30:22.700Z,11.45
2022-09-29T17:32:53.947Z,11.46
2022-09-29T17:35:33.497Z,11.45
2022-09-29T17:38:01.737Z,11.46
2022-09-29T17:40:35.604Z,11.45
2022-09-29T17:43:03.853Z,11.45
2022-09-29T17:45:35.381Z,11.45
2022-09-29T17:48:04.932Z,11.44
2022-09-29T17:50:36.905Z,11.43
2022-09-29T17:53:05.801Z,11.42
2022-09-29T17:55:35.210Z,11.41
2022-09-29T17:58:03.871Z,11.40
2022-09-29T18:00:38.201Z,11.39
2022-09-29T18:03:09.480Z,11.40
2022-09-29T18:05:40.690Z,11.39
2022-09-29T18:08:14.239Z,11.40
2022-09-29T18:10:45.326Z,11.40
2022-09-29T18:13:13.743Z,11.41
2022-09-29T18:15:43.956Z,11.42
2022-09-29T18:18:17.296Z,11.42
2022-09-29T18:20:47.114Z,11.43
2022-09-29T18:23:16.422Z,11.43
2022-09-29T18:25:47.976Z,11.45
2022-09-29T18:28:18.298Z,11.45
2022-09-29T18:30:52.151Z,11.47
2022-09-29T18:33:21.406Z,11.48
2022-09-29T18:35:54.683Z,11.49
2022-09-29T18:38:23.128Z,11.48
2022-09-29T18:40:54.392Z,11.47
2022-09-29T18:43:25.063Z,11.49
2022-09-29T18:45:57.459Z,11.49
2022-09-29T18:48:25.990Z,11.50
2022-09-29T18:50:55.109Z,11.50
2022-09-29T18:53:24.122Z,11.50
2022-09-29T18:55:58.319Z,11.48
2022-09-29T18:58:26.503Z,11.47
2022-09-29T19:00:57.393Z,11.45
2022-09-29T19:03:27.800Z,11.44
2022-09-29T19:05:57.048Z,11.44
2022-09-29T19:08:26.711Z,11.43
2022-09-29T19:10:58.300Z,11.41
2022-09-29T19:13:26.648Z,11.43
2022-09-29T19:16:00.122Z,11.44
2022-09-29T19:18:28.569Z,11.44
2022-09-29T19:20:58.755Z,11.45
2022-09-29T19:23:28.171Z,11.45
2022-09-29T19:25:58.512Z,11.45
2022-09-29T19:28:27.656Z,11.46
2022-09-29T19:30:56.517Z,11.46
2022-09-29T19:33:26.147Z,11.47
2022-09-29T19:35:55.570Z,11.47
2022-09-29T19:38:24.692Z,11.49
2022-09-29T19:40:53.237Z,11.50
2022-09-29T19:43:23.038Z,11.50
2022-09-29T19:45:51.809Z,11.49
2022-09-29T19:48:22.574Z,11.49
2022-09-29T19:51:16.631Z,11.49
2022-09-29T19:53:48.659Z,11.48
2022-09-29T19:56:18.495Z,11.48
2022-09-29T19:58:46.683Z,11.47
2022-09-29T20:01:14.972Z,11.47
2022-09-29T20:03:43.532Z,11.46
2022-09-29T20:06:13.105Z,11.45
2022-09-29T20:08:41.682Z,11.48
2022-09-29T20:11:12.612Z,11.48
2022-09-29T20:13:41.793Z,11.49
2022-09-29T20:16:09.998Z,11.48
2022-09-29T20:18:39.499Z,11.49
2022-09-29T20:21:08.721Z,11.49
2022-09-29T20:23:39.222Z,11.50
2022-09-29T20:26:09.563Z,11.50
2022-09-29T20:28:38.851Z,11.52
2022-09-29T20:31:07.644Z,11.54
2022-09-29T20:33:38.495Z,11.54
2022-09-29T20:36:07.543Z,11.53
2022-09-29T20:38:43.409Z,11.53
2022-09-29T20:41:12.572Z,11.54
2022-09-29T20:43:43.707Z,11.55
2022-09-29T20:46:14.392Z,11.56
2022-09-29T20:48:43.944Z,11.56
2022-09-29T20:51:16.158Z,11.56
2022-09-29T20:53:51.302Z,11.55
2022-09-29T20:56:20.311Z,11.55
2022-09-29T20:58:51.633Z,11.54
2022-09-29T21:01:23.243Z,11.54
2022-09-29T21:03:52.525Z,11.54
2022-09-29T21:06:21.932Z,11.55
2022-09-29T21:08:51.943Z,11.54
2022-09-29T21:11:20.453Z,11.54
2022-09-29T21:13:49.460Z,11.53
2022-09-29T21:16:18.201Z,11.52
2022-09-29T21:18:47.109Z,11.53
2022-09-29T21:21:15.770Z,11.52
2022-09-29T21:23:44.408Z,11.54
2022-09-29T21:26:16.930Z,11.53
2022-09-29T21:28:50.468Z,11.53
2022-09-29T21:31:21.700Z,11.53
2022-09-29T21:33:55.456Z,11.54
2022-09-29T21:36:25.752Z,11.53
2022-09-29T21:38:54.408Z,11.52
2022-09-29T21:41:26.608Z,11.51
2022-09-29T21:43:57.364Z,11.50
2022-09-29T21:46:28.027Z,11.49
2022-09-29T21:48:58.536Z,11.49
2022-09-29T21:51:29.769Z,11.47
2022-09-29T21:54:01.397Z,11.47
2022-09-29T21:56:35.153Z,11.43
2022-09-29T21:59:03.399Z,11.42
2022-09-29T22:01:31.778Z,11.40
2022-09-29T22:04:00.709Z,11.39
2022-09-29T22:06:31.864Z,11.37
2022-09-29T22:09:01.571Z,11.36
2022-09-29T22:11:35.981Z,11.35
2022-09-29T22:14:04.483Z,11.34
2022-09-29T22:16:34.851Z,11.32
2022-09-29T22:21:55.187Z,11.28
2022-09-29T22:24:24.100Z,11.27
2022-09-29T22:26:54.313Z,11.26
2022-09-29T22:29:22.673Z,11.25
2022-09-29T22:31:51.175Z,11.24
2022-09-29T22:34:19.480Z,11.24
2022-09-29T22:36:47.750Z,11.24
2022-09-29T22:39:15.909Z,11.23
2022-09-29T22:41:44.104Z,11.23
2022-09-29T22:44:13.739Z,11.22
2022-09-29T22:46:42.035Z,11.23
2022-09-29T22:49:10.538Z,11.22
2022-09-29T22:51:38.778Z,11.22
2022-09-29T22:54:07.347Z,11.22
2022-09-29T22:56:35.706Z,11.20
2022-09-29T22:59:05.450Z,11.17
2022-09-29T23:01:35.447Z,11.14
2022-09-29T23:04:04.879Z,11.13
2022-09-29T23:06:33.251Z,11.10
2022-09-29T23:09:01.567Z,11.09
2022-09-29T23:11:31.224Z,11.07
2022-09-29T23:14:00.288Z,11.07
2022-09-29T23:16:29.324Z,11.06
2022-09-29T23:18:59.643Z,11.05
2022-09-29T23:21:28.195Z,11.02
2022-09-29T23:23:59.511Z,11.03
2022-09-29T23:26:29.695Z,11.02
2022-09-29T23:28:58.395Z,11.01
2022-09-29T23:31:26.778Z,10.98
2022-09-29T23:33:56.816Z,10.97
2022-09-29T23:36:29.289Z,10.95
2022-09-29T23:39:21.363Z,10.94
2022-09-29T23:41:52.524Z,10.94
2022-09-29T23:44:23.480Z,10.93
2022-09-29T23:46:53.303Z,10.93
2022-09-29T23:49:23.922Z,10.93
2022-09-29T23:51:56.506Z,10.88
2022-09-29T23:54:27.143Z,10.88
2022-09-29T23:56:57.445Z,10.86
2022-09-29T23:59:26.333Z,10.84
